Saffet Bey — TCUZ — position and weather

sailwx.info

Track history (hours):
 
Tides and Currents Weather Stations Pressure Air Temp Water Temp Dewpoint Dewpoint Depression Visibility Wind Speed Wind Dir Waves Ship Positions

Saffet Bey

Last reported at 2017-Dec-18 22:22 UTC. Time now 2017-Dec-18 22:41 UTC.
Position N 36°37' E 021°55'.

Length 164 m; draft 6.2 m.

Type: Cargo ship. MMSI: 271000419.

Date/timePositionNaut miles runAvg speedWind from/ knotsBaromVisibWave heightAir tempDewpointWater temp
2017-Dec-18 22:22N 36°37' E 021°55'513.6
2017-Dec-18 21:59N 36°35' E 022°00'10512.3
2017-Dec-18 13:30N 36°54' E 024°08'713.8
2017-Dec-18 13:00N 36°58' E 024°16'713.9
2017-Dec-18 12:30N 37°01' E 024°23'813.8
2017-Dec-18 11:54N 37°06' E 024°32'514.0
2017-Dec-18 11:30N 37°09' E 024°38'713.9
2017-Dec-18 11:01N 37°13' E 024°45'714.1
2017-Dec-18 10:31N 37°17' E 024°52'714.2
2017-Dec-18 10:00N 37°22' E 024°59'714.6
2017-Dec-18 09:31N 37°26' E 025°06'815.5
2017-Dec-18 09:01N 37°30' E 025°14'815.7
2017-Dec-18 08:29N 37°36' E 025°22'13 0.8
2017-Dec-17 16:42N 37°45' E 025°34'616.0
2017-Dec-17 16:19N 37°41' E 025°28'515.9
2017-Dec-17 15:59N 37°37' E 025°23'715.9
2017-Dec-17 15:30N 37°32' E 025°16'816.1
2017-Dec-17 15:01N 37°27' E 025°08'816.0
2017-Dec-17 14:30N 37°22' E 025°00'816.1
2017-Dec-17 14:00N 37°17' E 024°53'816.0
2017-Dec-17 13:31N 37°12' E 024°45'816.1
2017-Dec-17 13:01N 37°07' E 024°37'916.0
2017-Dec-17 12:27N 37°01' E 024°28'715.3
2017-Dec-17 12:01N 36°58' E 024°21'815.7
2017-Dec-17 11:30N 36°54' E 024°12'66112.9
2017-Dec-15 08:12N 44°30' E 013°42'313.9
2017-Dec-15 07:59N 44°33' E 013°40'713.8
2017-Dec-15 07:31N 44°38' E 013°34'713.7
2017-Dec-15 07:00N 44°44' E 013°29'713.8
2017-Dec-15 06:30N 44°50' E 013°23'713.9
2017-Dec-15 06:01N 44°55' E 013°18'713.7
2017-Dec-15 05:31N 45°01' E 013°13'713.9
2017-Dec-15 05:00N 45°07' E 013°08'713.6
2017-Dec-15 04:30N 45°13' E 013°05'713.9
2017-Dec-15 04:00N 45°20' E 013°02'2113.9
2017-Dec-15 02:31N 45°34' E 013°24'1610.2
2017-Dec-15 00:58N 45°38' E 013°46'0 0.0
2017-Dec-15 00:28N 45°38' E 013°46'0 0.0
2017-Dec-14 18:19N 45°38' E 013°46'0 0.0
2017-Dec-14 17:46N 45°38' E 013°46'0 0.0
2017-Dec-14 17:25N 45°38' E 013°46'0 0.0
2017-Dec-14 16:58N 45°38' E 013°46'0 0.0
2017-Dec-14 16:28N 45°38' E 013°46'0 0.0
2017-Dec-14 15:58N 45°38' E 013°46'0 0.0
2017-Dec-14 14:49N 45°38' E 013°46'0 0.0
2017-Dec-14 14:25N 45°38' E 013°46'0 0.0
2017-Dec-14 13:58N 45°38' E 013°46'0 0.0
2017-Dec-14 13:25N 45°38' E 013°46'0 0.0
2017-Dec-14 12:16N 45°38' E 013°46'0 0.0
2017-Dec-14 11:55N 45°38' E 013°46'0 0.0
2017-Dec-14 11:22N 45°38' E 013°46'0 0.0
2017-Dec-14 10:58N 45°38' E 013°46'0 0.0
2017-Dec-14 10:28N 45°38' E 013°46'0 0.0
2017-Dec-14 09:58N 45°38' E 013°46'0 0.0
2017-Dec-14 09:28N 45°38' E 013°46'0 0.0
2017-Dec-14 08:52N 45°38' E 013°46'0 0.0
2017-Dec-14 08:28N 45°38' E 013°46'0 0.0
2017-Dec-14 07:55N 45°38' E 013°46'0 0.0
2017-Dec-14 07:28N 45°38' E 013°46'0 0.0
2017-Dec-14 07:00N 45°38' E 013°46'0 0.5
2017-Dec-14 06:30N 45°38' E 013°45'2 4.2
2017-Dec-14 06:00N 45°39' E 013°42'510.7
2017-Dec-14 05:30N 45°37' E 013°35'714.2
2017-Dec-14 05:00N 45°33' E 013°27'713.8
2017-Dec-14 04:30N 45°28' E 013°20'714.1
2017-Dec-14 04:00N 45°23' E 013°13'714.2
2017-Dec-14 03:30N 45°16' E 013°15'714.4
2017-Dec-14 03:00N 45°09' E 013°18'714.3
2017-Dec-14 02:30N 45°02' E 013°20'714.2
2017-Dec-14 02:00N 44°56' E 013°25'714.1
2017-Dec-14 01:30N 44°50' E 013°31'714.1
2017-Dec-14 01:00N 44°44' E 013°36'  
2017-Dec-11 16:04N 36°53' E 024°07'213.3
2017-Dec-11 15:56N 36°54' E 024°09'613.4
2017-Dec-11 15:31N 36°57' E 024°15'713.4
2017-Dec-11 15:00N 37°00' E 024°23'913.5
2017-Dec-11 14:19N 37°06' E 024°32'413.4
2017-Dec-11 14:01N 37°08' E 024°36'713.1
2017-Dec-11 13:30N 37°12' E 024°43'713.0
2017-Dec-11 13:00N 37°16' E 024°50'713.3
2017-Dec-11 12:30N 37°20' E 024°56'813.4
2017-Dec-11 11:53N 37°25' E 025°05'513.6
2017-Dec-11 11:29N 37°28' E 025°10'713.7
2017-Dec-11 11:00N 37°32' E 025°16'713.5
2017-Dec-11 10:30N 37°37' E 025°23'5 0.3
2017-Dec-10 16:27N 37°40' E 025°28'1014.6
2017-Dec-10 15:45N 37°33' E 025°19'414.4
2017-Dec-10 15:30N 37°31' E 025°15'714.3
2017-Dec-10 15:00N 37°26' E 025°08'814.4
2017-Dec-10 14:27N 37°21' E 025°00'714.7
2017-Dec-10 14:00N 37°17' E 024°54'714.8
2017-Dec-10 13:30N 37°13' E 024°47'714.8
2017-Dec-10 13:00N 37°08' E 024°39'1214.7
2017-Dec-10 12:13N 37°01' E 024°28'314.6
2017-Dec-10 12:00N 36°59' E 024°25'714.8
2017-Dec-10 11:30N 36°55' E 024°17'714.9
2017-Dec-10 11:00N 36°52' E 024°09'  
Track history (hours):
 
Tides and Currents Weather Stations Pressure Air Temp Water Temp Dewpoint Dewpoint Depression Visibility Wind Speed Wind Dir Waves Ship Positions

Saffet Bey

Last reported at 2017-Dec-18 22:22 UTC. Time now 2017-Dec-18 22:41 UTC.
Position N 36°37' E 021°55'.

Length 164 m; draft 6.2 m.

Type: Cargo ship. MMSI: 271000419.

Date/timePositionNaut miles runAvg speedWind from/ knotsBaromVisibWave heightAir tempDewpointWater temp
2017-Dec-18 22:22N 36°37' E 021°55'513.6
2017-Dec-18 21:59N 36°35' E 022°00'10512.3
2017-Dec-18 13:30N 36°54' E 024°08'713.8
2017-Dec-18 13:00N 36°58' E 024°16'713.9
2017-Dec-18 12:30N 37°01' E 024°23'813.8
2017-Dec-18 11:54N 37°06' E 024°32'514.0
2017-Dec-18 11:30N 37°09' E 024°38'713.9
2017-Dec-18 11:01N 37°13' E 024°45'714.1
2017-Dec-18 10:31N 37°17' E 024°52'714.2
2017-Dec-18 10:00N 37°22' E 024°59'714.6
2017-Dec-18 09:31N 37°26' E 025°06'815.5
2017-Dec-18 09:01N 37°30' E 025°14'815.7
2017-Dec-18 08:29N 37°36' E 025°22'13 0.8
2017-Dec-17 16:42N 37°45' E 025°34'616.0
2017-Dec-17 16:19N 37°41' E 025°28'515.9
2017-Dec-17 15:59N 37°37' E 025°23'715.9
2017-Dec-17 15:30N 37°32' E 025°16'816.1
2017-Dec-17 15:01N 37°27' E 025°08'816.0
2017-Dec-17 14:30N 37°22' E 025°00'816.1
2017-Dec-17 14:00N 37°17' E 024°53'816.0
2017-Dec-17 13:31N 37°12' E 024°45'816.1
2017-Dec-17 13:01N 37°07' E 024°37'916.0
2017-Dec-17 12:27N 37°01' E 024°28'715.3
2017-Dec-17 12:01N 36°58' E 024°21'815.7
2017-Dec-17 11:30N 36°54' E 024°12'66112.9
2017-Dec-15 08:12N 44°30' E 013°42'313.9
2017-Dec-15 07:59N 44°33' E 013°40'713.8
2017-Dec-15 07:31N 44°38' E 013°34'713.7
2017-Dec-15 07:00N 44°44' E 013°29'713.8
2017-Dec-15 06:30N 44°50' E 013°23'713.9
2017-Dec-15 06:01N 44°55' E 013°18'713.7
2017-Dec-15 05:31N 45°01' E 013°13'713.9
2017-Dec-15 05:00N 45°07' E 013°08'713.6
2017-Dec-15 04:30N 45°13' E 013°05'713.9
2017-Dec-15 04:00N 45°20' E 013°02'2113.9
2017-Dec-15 02:31N 45°34' E 013°24'1610.2
2017-Dec-15 00:58N 45°38' E 013°46'0 0.0
2017-Dec-15 00:28N 45°38' E 013°46'0 0.0
2017-Dec-14 18:19N 45°38' E 013°46'0 0.0
2017-Dec-14 17:46N 45°38' E 013°46'0 0.0
2017-Dec-14 17:25N 45°38' E 013°46'0 0.0
2017-Dec-14 16:58N 45°38' E 013°46'0 0.0
2017-Dec-14 16:28N 45°38' E 013°46'0 0.0
2017-Dec-14 15:58N 45°38' E 013°46'0 0.0
2017-Dec-14 14:49N 45°38' E 013°46'0 0.0
2017-Dec-14 14:25N 45°38' E 013°46'0 0.0
2017-Dec-14 13:58N 45°38' E 013°46'0 0.0
2017-Dec-14 13:25N 45°38' E 013°46'0 0.0
2017-Dec-14 12:16N 45°38' E 013°46'0 0.0
2017-Dec-14 11:55N 45°38' E 013°46'0 0.0
2017-Dec-14 11:22N 45°38' E 013°46'0 0.0
2017-Dec-14 10:58N 45°38' E 013°46'0 0.0
2017-Dec-14 10:28N 45°38' E 013°46'0 0.0
2017-Dec-14 09:58N 45°38' E 013°46'0 0.0
2017-Dec-14 09:28N 45°38' E 013°46'0 0.0
2017-Dec-14 08:52N 45°38' E 013°46'0 0.0
2017-Dec-14 08:28N 45°38' E 013°46'0 0.0
2017-Dec-14 07:55N 45°38' E 013°46'0 0.0
2017-Dec-14 07:28N 45°38' E 013°46'0 0.0
2017-Dec-14 07:00N 45°38' E 013°46'0 0.5
2017-Dec-14 06:30N 45°38' E 013°45'2 4.2
2017-Dec-14 06:00N 45°39' E 013°42'510.7
2017-Dec-14 05:30N 45°37' E 013°35'714.2
2017-Dec-14 05:00N 45°33' E 013°27'713.8
2017-Dec-14 04:30N 45°28' E 013°20'714.1
2017-Dec-14 04:00N 45°23' E 013°13'714.2
2017-Dec-14 03:30N 45°16' E 013°15'714.4
2017-Dec-14 03:00N 45°09' E 013°18'714.3
2017-Dec-14 02:30N 45°02' E 013°20'714.2
2017-Dec-14 02:00N 44°56' E 013°25'714.1
2017-Dec-14 01:30N 44°50' E 013°31'714.1
2017-Dec-14 01:00N 44°44' E 013°36'  
2017-Dec-11 16:04N 36°53' E 024°07'213.3
2017-Dec-11 15:56N 36°54' E 024°09'613.4
2017-Dec-11 15:31N 36°57' E 024°15'713.4
2017-Dec-11 15:00N 37°00' E 024°23'913.5
2017-Dec-11 14:19N 37°06' E 024°32'413.4
2017-Dec-11 14:01N 37°08' E 024°36'713.1
2017-Dec-11 13:30N 37°12' E 024°43'713.0
2017-Dec-11 13:00N 37°16' E 024°50'713.3
2017-Dec-11 12:30N 37°20' E 024°56'813.4
2017-Dec-11 11:53N 37°25' E 025°05'513.6
2017-Dec-11 11:29N 37°28' E 025°10'713.7
2017-Dec-11 11:00N 37°32' E 025°16'713.5
2017-Dec-11 10:30N 37°37' E 025°23'5 0.3
2017-Dec-10 16:27N 37°40' E 025°28'1014.6
2017-Dec-10 15:45N 37°33' E 025°19'414.4
2017-Dec-10 15:30N 37°31' E 025°15'714.3
2017-Dec-10 15:00N 37°26' E 025°08'814.4
2017-Dec-10 14:27N 37°21' E 025°00'714.7
2017-Dec-10 14:00N 37°17' E 024°54'714.8
2017-Dec-10 13:30N 37°13' E 024°47'714.8
2017-Dec-10 13:00N 37°08' E 024°39'1214.7
2017-Dec-10 12:13N 37°01' E 024°28'314.6
2017-Dec-10 12:00N 36°59' E 024°25'714.8
2017-Dec-10 11:30N 36°55' E 024°17'714.9
2017-Dec-10 11:00N 36°52' E 024°09'  

Dump ship's entire track history